createdAt,value
2023-04-21T00:04:17.867Z,28.25
2023-04-21T00:09:21.309Z,25.52
2023-04-21T00:14:25.615Z,25.15
2023-04-21T00:19:28.878Z,27.10
2023-04-21T00:24:31.580Z,27.05
2023-04-21T00:29:35.613Z,27.77
2023-04-21T00:34:38.365Z,27.90
2023-04-21T00:39:41.783Z,27.52
2023-04-21T00:44:46.012Z,28.67
2023-04-21T00:49:49.432Z,28.15
2023-04-21T00:54:52.167Z,28.95
2023-04-21T00:59:56.490Z,28.10
2023-04-21T01:05:00.577Z,31.25
2023-04-21T01:10:03.485Z,30.23
2023-04-21T01:15:09.708Z,28.35
2023-04-21T01:20:15.073Z,29.70
2023-04-21T01:25:22.437Z,30.73
2023-04-21T01:35:27.989Z,28.90
2023-04-21T01:40:32.178Z,33.00
2023-04-21T01:45:37.319Z,32.27
2023-04-21T01:50:40.203Z,30.27
2023-04-21T01:55:44.381Z,31.23
2023-04-21T02:00:47.262Z,30.50
2023-04-21T02:05:51.480Z,30.00
2023-04-21T02:10:55.576Z,33.90
2023-04-21T02:16:12.069Z,31.60
2023-04-21T02:21:16.434Z,32.88
2023-04-21T02:26:20.900Z,32.67
2023-04-21T02:31:23.919Z,30.08
2023-04-21T02:36:26.747Z,32.33
2023-04-21T02:41:34.800Z,34.97
2023-04-21T02:46:41.087Z,31.95
2023-04-21T02:51:43.784Z,30.25
2023-04-21T02:56:47.918Z,29.83
2023-04-21T03:01:50.952Z,33.30
2023-04-21T03:06:54.503Z,30.67
2023-04-21T03:11:58.595Z,33.58
2023-04-21T03:17:01.538Z,31.80
2023-04-21T03:22:06.655Z,32.10
2023-04-21T03:27:11.215Z,29.88
2023-04-21T03:32:14.040Z,27.77
2023-04-21T03:37:17.304Z,29.27
2023-04-21T03:42:22.151Z,29.90
2023-04-21T03:47:26.111Z,32.30
2023-04-21T03:52:28.979Z,33.92
2023-04-21T03:57:33.113Z,31.80
2023-04-21T04:02:36.032Z,30.15
2023-04-21T04:07:38.944Z,32.13
2023-04-21T04:12:42.965Z,31.13
2023-04-21T04:17:45.818Z,31.10
2023-04-21T04:22:48.792Z,29.73
2023-04-21T04:27:53.658Z,30.42
2023-04-21T04:32:58.035Z,28.50
2023-04-21T04:38:00.834Z,31.75
2023-04-21T04:43:05.009Z,27.85
2023-04-21T04:48:08.250Z,31.10
2023-04-21T04:53:12.289Z,28.75
2023-04-21T04:58:17.294Z,28.98
2023-04-21T05:03:20.269Z,29.05
2023-04-21T05:08:23.189Z,28.08
2023-04-21T05:13:27.530Z,29.58
2023-04-21T05:18:30.721Z,31.67
2023-04-21T05:23:34.108Z,29.95
2023-04-21T05:28:38.303Z,30.98
2023-04-21T05:33:42.600Z,29.75
2023-04-21T05:38:46.184Z,27.17
2023-04-21T05:43:50.531Z,29.40
2023-04-21T05:48:53.303Z,28.42
2023-04-21T05:53:58.603Z,30.52
2023-04-21T05:59:03.734Z,29.73
2023-04-21T06:04:07.500Z,29.08
2023-04-21T06:09:11.174Z,30.88
2023-04-21T06:14:15.346Z,29.02
2023-04-21T06:19:19.318Z,28.63
2023-04-21T06:24:25.311Z,29.83
2023-04-21T06:29:29.791Z,31.20
2023-04-21T06:34:32.623Z,31.25
2023-04-21T06:39:37.409Z,30.83
2023-04-21T06:44:41.604Z,29.33
2023-04-21T06:49:44.343Z,31.50
2023-04-21T06:54:48.775Z,27.15
2023-04-21T06:59:53.301Z,32.05
2023-04-21T07:04:57.361Z,29.00
2023-04-21T07:10:01.785Z,29.63
2023-04-21T07:15:09.055Z,30.15
2023-04-21T07:20:12.101Z,30.83
2023-04-21T07:25:15.121Z,30.35
2023-04-21T07:30:19.366Z,29.40
2023-04-21T07:35:22.401Z,29.05
2023-04-21T07:40:26.337Z,29.58
2023-04-21T07:45:30.660Z,31.15
2023-04-21T07:50:33.519Z,26.77
2023-04-21T07:55:37.426Z,30.70
2023-04-21T08:00:41.650Z,29.65
2023-04-21T08:05:46.101Z,29.67
2023-04-21T08:10:49.529Z,29.33
2023-04-21T08:15:55.421Z,29.05
2023-04-21T08:21:00.168Z,30.45
2023-04-21T08:26:06.882Z,28.92
2023-04-21T08:31:11.324Z,30.17
2023-04-21T08:41:21.480Z,30.85
2023-04-21T08:46:25.956Z,28.10
2023-04-21T08:51:31.627Z,27.42
2023-04-21T08:56:34.571Z,27.67
2023-04-21T09:02:10.031Z,27.10
2023-04-21T09:07:32.088Z,27.98
2023-04-21T09:12:35.170Z,27.45
2023-04-21T09:17:39.520Z,29.20
2023-04-21T09:22:42.956Z,26.80
2023-04-21T09:27:46.649Z,26.95
2023-04-21T09:32:50.858Z,25.55
2023-04-21T09:37:54.504Z,26.10
2023-04-21T09:42:58.813Z,24.20
2023-04-21T09:48:08.963Z,25.52
2023-04-21T09:53:17.109Z,25.80
2023-04-21T10:03:28.725Z,23.92
2023-04-21T10:08:32.127Z,24.17
2023-04-21T10:13:36.708Z,29.00
2023-04-21T10:18:45.705Z,27.60
2023-04-21T10:23:50.412Z,26.30
2023-04-21T10:28:57.409Z,23.65
2023-04-21T10:34:17.591Z,22.77
2023-04-21T10:39:28.549Z,22.88
2023-04-21T10:44:32.480Z,22.95
2023-04-21T10:49:40.065Z,24.10
2023-04-21T10:54:46.105Z,24.27
2023-04-21T10:59:50.809Z,21.88
2023-04-21T11:04:56.310Z,20.67
2023-04-21T11:10:02.562Z,20.05
2023-04-21T11:15:10.583Z,17.80
2023-04-21T11:20:17.358Z,18.20
2023-04-21T11:25:20.235Z,18.92
2023-04-21T11:30:23.907Z,21.17
2023-04-21T11:35:28.813Z,22.48
2023-04-21T11:40:45.836Z,20.70
2023-04-21T11:45:51.706Z,21.77
2023-04-21T11:50:57.714Z,19.58
2023-04-21T11:56:01.372Z,19.13
2023-04-21T12:01:09.078Z,20.67
2023-04-21T12:06:23.029Z,29.45
2023-04-21T12:11:28.072Z,20.35
2023-04-21T12:16:30.903Z,19.33
2023-04-21T12:21:38.629Z,17.05
2023-04-21T12:26:44.473Z,24.58
2023-04-21T12:31:47.385Z,16.27
2023-04-21T12:36:52.003Z,12.52
2023-04-21T12:41:55.640Z,10.98
2023-04-21T12:46:59.396Z,11.55
2023-04-21T12:52:07.687Z,12.20
2023-04-21T12:57:11.724Z,10.90
2023-04-21T13:02:14.709Z,11.50
2023-04-21T13:07:21.366Z,11.93
2023-04-21T13:12:26.678Z,10.85
2023-04-21T13:17:29.503Z,11.50
2023-04-21T13:22:35.616Z,10.52
2023-04-21T13:27:39.999Z,9.47
2023-04-21T13:32:44.159Z,9.57
2023-04-21T13:37:49.276Z,9.38
2023-04-21T13:42:52.109Z,9.55
2023-04-21T13:47:55.499Z,8.75
2023-04-21T13:52:59.687Z,8.30
2023-04-21T13:58:02.709Z,6.88
2023-04-21T14:03:05.936Z,6.90
2023-04-21T14:08:10.782Z,7.88
2023-04-21T14:13:26.897Z,7.72
2023-04-21T14:18:38.359Z,9.15
2023-04-21T14:23:42.585Z,5.47
2023-04-21T14:28:45.890Z,6.30
2023-04-21T14:33:50.082Z,4.88
2023-04-21T14:38:54.863Z,5.68
2023-04-21T14:44:00.398Z,6.00
2023-04-21T14:49:03.542Z,5.53
2023-04-21T14:54:08.184Z,5.82
2023-04-21T14:59:11.809Z,5.75
2023-04-21T15:04:15.424Z,6.65
2023-04-21T15:09:20.831Z,5.72
2023-04-21T15:14:24.504Z,5.47
2023-04-21T15:19:27.251Z,5.20
2023-04-21T15:24:31.874Z,6.07
2023-04-21T15:29:35.889Z,8.07
2023-04-21T15:34:39.467Z,5.32
2023-04-21T15:39:43.568Z,5.32
2023-04-21T15:44:47.130Z,5.57
2023-04-21T15:49:51.105Z,6.15
2023-04-21T15:54:55.639Z,6.03
2023-04-21T15:59:58.528Z,6.05
2023-04-21T16:05:01.646Z,5.32
2023-04-21T16:10:06.684Z,6.00
2023-04-21T16:20:19.677Z,4.47
2023-04-21T16:25:25.386Z,6.00
2023-04-21T16:30:28.282Z,5.05
2023-04-21T16:35:31.809Z,8.80
2023-04-21T16:40:35.998Z,5.00
2023-04-21T16:45:39.944Z,4.15
2023-04-21T16:50:42.774Z,5.47
2023-04-21T16:55:47.094Z,4.57
2023-04-21T17:00:50.024Z,4.97
2023-04-21T17:05:53.751Z,4.05
2023-04-21T17:10:58.902Z,4.18
2023-04-21T17:16:02.729Z,4.85
2023-04-21T17:21:06.805Z,4.72
2023-04-21T17:26:13.124Z,4.90
2023-04-21T17:31:16.546Z,5.45
2023-04-21T17:36:20.336Z,5.43
2023-04-21T17:41:24.964Z,5.22
2023-04-21T17:46:28.013Z,5.88
2023-04-21T17:51:31.844Z,6.50
2023-04-21T17:56:36.147Z,6.93
2023-04-21T18:01:39.157Z,5.82
2023-04-21T18:06:42.037Z,5.85
2023-04-21T18:11:46.417Z,5.70
2023-04-21T18:16:50.051Z,5.72
2023-04-21T18:21:53.064Z,5.75
2023-04-21T18:26:58.020Z,2.65
2023-04-21T18:32:01.255Z,1.60
2023-04-21T18:37:05.019Z,1.75
2023-04-21T18:42:10.994Z,5.40
2023-04-21T18:47:15.301Z,2.20
2023-04-21T18:52:18.363Z,2.78
2023-04-21T18:57:22.622Z,3.70
2023-04-21T19:02:25.809Z,2.83
2023-04-21T19:07:28.671Z,3.60
2023-04-21T19:12:34.121Z,2.28
2023-04-21T19:17:37.089Z,2.40
2023-04-21T19:22:40.096Z,4.40
2023-04-21T19:27:46.697Z,4.10
2023-04-21T19:32:49.619Z,6.28
2023-04-21T19:37:52.394Z,6.22
2023-04-21T19:42:58.533Z,4.43
2023-04-21T19:48:01.846Z,3.45
2023-04-21T19:53:04.958Z,3.30
2023-04-21T19:58:09.257Z,16.85
2023-04-21T20:03:12.369Z,11.85
2023-04-21T20:08:16.270Z,8.07
2023-04-21T20:13:21.053Z,4.95
2023-04-21T20:18:23.819Z,3.72
2023-04-21T20:23:26.845Z,4.40
2023-04-21T20:28:32.599Z,4.40
2023-04-21T20:33:35.581Z,8.95
2023-04-21T20:38:38.855Z,12.60
2023-04-21T20:43:43.747Z,24.55
2023-04-21T20:48:46.731Z,13.88
2023-04-21T20:53:49.448Z,8.15
2023-04-21T20:58:54.013Z,8.18
2023-04-21T21:03:57.388Z,6.20
2023-04-21T21:09:01.827Z,5.47
2023-04-21T21:14:06.207Z,5.55
2023-04-21T21:19:09.356Z,4.88
2023-04-21T21:24:12.483Z,5.00
2023-04-21T21:29:16.663Z,6.80
2023-04-21T21:34:19.400Z,7.00
2023-04-21T21:39:22.346Z,6.35
2023-04-21T21:44:26.620Z,6.18
2023-04-21T21:49:29.454Z,5.57
2023-04-21T21:54:32.217Z,6.30
2023-04-21T21:59:36.715Z,6.65
2023-04-21T22:04:39.995Z,6.07
2023-04-21T22:09:42.724Z,6.05
2023-04-21T22:14:47.112Z,6.00
2023-04-21T22:19:49.897Z,6.97
2023-04-21T22:24:52.622Z,7.03
2023-04-21T22:29:56.804Z,6.50
2023-04-21T22:35:00.408Z,6.00
2023-04-21T22:40:04.707Z,6.03
2023-04-21T22:45:10.459Z,6.00
2023-04-21T22:50:14.781Z,6.25
2023-04-21T22:55:17.843Z,7.25
2023-04-21T23:00:21.971Z,6.20
2023-04-21T23:05:24.672Z,5.35
2023-04-21T23:10:29.309Z,5.10
2023-04-21T23:15:33.487Z,5.43
2023-04-21T23:20:36.382Z,5.15
2023-04-21T23:25:40.708Z,5.45
2023-04-21T23:30:44.914Z,5.03
2023-04-21T23:35:48.099Z,4.38
2023-04-21T23:40:51.008Z,5.28
2023-04-21T23:45:55.172Z,5.03
2023-04-21T23:50:58.009Z,5.05
2023-04-21T23:56:00.789Z,4.55
